sensor_id;sensor_type;location;lat;lon;timestamp;P1;durP1;ratioP1;P2;durP2;ratioP2
21301;SDS011;10810;48.270;9.996;2023-02-01T00:00:40;6.57;;;2.67;;
21301;SDS011;10810;48.270;9.996;2023-02-01T00:06:53;9.37;;;2.50;;
21301;SDS011;10810;48.270;9.996;2023-02-01T00:09:38;7.73;;;3.00;;
21301;SDS011;10810;48.270;9.996;2023-02-01T00:12:21;7.37;;;2.70;;
21301;SDS011;10810;48.270;9.996;2023-02-01T00:15:16;6.03;;;2.60;;
21301;SDS011;10810;48.270;9.996;2023-02-01T00:18:05;5.10;;;2.23;;
21301;SDS011;10810;48.270;9.996;2023-02-01T00:21:12;7.13;;;2.43;;
21301;SDS011;10810;48.270;9.996;2023-02-01T00:23:58;7.10;;;2.63;;
21301;SDS011;10810;48.270;9.996;2023-02-01T00:26:26;8.23;;;2.50;;
21301;SDS011;10810;48.270;9.996;2023-02-01T00:29:00;4.23;;;2.20;;
21301;SDS011;10810;48.270;9.996;2023-02-01T00:31:27;9.23;;;2.63;;
21301;SDS011;10810;48.270;9.996;2023-02-01T00:34:03;7.13;;;2.87;;
21301;SDS011;10810;48.270;9.996;2023-02-01T00:37:10;5.30;;;2.23;;
21301;SDS011;10810;48.270;9.996;2023-02-01T00:39:45;7.10;;;2.53;;
21301;SDS011;10810;48.270;9.996;2023-02-01T00:42:28;4.63;;;2.47;;
21301;SDS011;10810;48.270;9.996;2023-02-01T00:48:41;8.13;;;2.83;;
21301;SDS011;10810;48.270;9.996;2023-02-01T00:51:12;8.33;;;2.70;;
21301;SDS011;10810;48.270;9.996;2023-02-01T00:53:41;7.87;;;2.50;;
21301;SDS011;10810;48.270;9.996;2023-02-01T00:56:43;9.77;;;3.20;;
21301;SDS011;10810;48.270;9.996;2023-02-01T00:59:24;7.83;;;3.03;;
21301;SDS011;10810;48.270;9.996;2023-02-01T01:02:16;5.63;;;2.97;;
21301;SDS011;10810;48.270;9.996;2023-02-01T01:09:34;6.30;;;2.70;;
21301;SDS011;10810;48.270;9.996;2023-02-01T01:11:06;6.87;;;2.73;;
21301;SDS011;10810;48.270;9.996;2023-02-01T01:14:10;9.43;;;3.13;;
21301;SDS011;10810;48.270;9.996;2023-02-01T01:16:54;8.07;;;2.97;;
21301;SDS011;10810;48.270;9.996;2023-02-01T01:20:13;6.70;;;2.60;;
21301;SDS011;10810;48.270;9.996;2023-02-01T01:22:52;7.93;;;2.80;;
21301;SDS011;10810;48.270;9.996;2023-02-01T01:25:41;6.60;;;2.57;;
21301;SDS011;10810;48.270;9.996;2023-02-01T01:28:22;7.67;;;2.90;;
21301;SDS011;10810;48.270;9.996;2023-02-01T01:31:18;6.53;;;2.80;;
21301;SDS011;10810;48.270;9.996;2023-02-01T01:34:04;6.50;;;3.00;;
21301;SDS011;10810;48.270;9.996;2023-02-01T01:37:25;7.60;;;2.97;;
21301;SDS011;10810;48.270;9.996;2023-02-01T01:40:00;7.43;;;3.10;;
21301;SDS011;10810;48.270;9.996;2023-02-01T01:42:40;10.07;;;3.33;;
21301;SDS011;10810;48.270;9.996;2023-02-01T01:49:03;7.50;;;3.27;;
21301;SDS011;10810;48.270;9.996;2023-02-01T01:51:46;9.90;;;3.40;;
21301;SDS011;10810;48.270;9.996;2023-02-01T02:01:14;13.00;;;3.70;;
21301;SDS011;10810;48.270;9.996;2023-02-01T02:04:11;7.90;;;3.47;;
21301;SDS011;10810;48.270;9.996;2023-02-01T02:06:47;7.20;;;3.10;;
21301;SDS011;10810;48.270;9.996;2023-02-01T02:09:26;8.10;;;2.67;;
21301;SDS011;10810;48.270;9.996;2023-02-01T02:12:17;10.97;;;3.57;;
21301;SDS011;10810;48.270;9.996;2023-02-01T02:15:33;12.23;;;3.43;;
21301;SDS011;10810;48.270;9.996;2023-02-01T02:18:10;10.07;;;3.80;;
21301;SDS011;10810;48.270;9.996;2023-02-01T02:21:36;7.43;;;3.13;;
21301;SDS011;10810;48.270;9.996;2023-02-01T02:24:37;7.30;;;2.67;;
21301;SDS011;10810;48.270;9.996;2023-02-01T02:30:48;8.13;;;3.07;;
21301;SDS011;10810;48.270;9.996;2023-02-01T02:33:57;6.80;;;2.83;;
21301;SDS011;10810;48.270;9.996;2023-02-01T02:37:04;9.00;;;3.40;;
21301;SDS011;10810;48.270;9.996;2023-02-01T02:39:57;9.63;;;3.17;;
21301;SDS011;10810;48.270;9.996;2023-02-01T02:42:46;6.77;;;2.90;;
21301;SDS011;10810;48.270;9.996;2023-02-01T02:46:04;6.37;;;2.80;;
21301;SDS011;10810;48.270;9.996;2023-02-01T02:48:59;10.63;;;2.83;;
21301;SDS011;10810;48.270;9.996;2023-02-01T02:52:14;6.97;;;2.40;;
21301;SDS011;10810;48.270;9.996;2023-02-01T02:55:04;9.13;;;3.33;;
21301;SDS011;10810;48.270;9.996;2023-02-01T02:58:50;6.17;;;2.60;;
21301;SDS011;10810;48.270;9.996;2023-02-01T03:04:41;11.37;;;3.00;;
21301;SDS011;10810;48.270;9.996;2023-02-01T03:07:49;8.33;;;3.20;;
21301;SDS011;10810;48.270;9.996;2023-02-01T03:10:53;6.23;;;2.70;;
21301;SDS011;10810;48.270;9.996;2023-02-01T03:13:51;6.67;;;2.80;;
21301;SDS011;10810;48.270;9.996;2023-02-01T03:19:31;6.77;;;2.43;;
21301;SDS011;10810;48.270;9.996;2023-02-01T03:22:28;6.40;;;2.60;;
21301;SDS011;10810;48.270;9.996;2023-02-01T03:28:18;6.50;;;2.53;;
21301;SDS011;10810;48.270;9.996;2023-02-01T03:30:49;4.57;;;2.13;;
21301;SDS011;10810;48.270;9.996;2023-02-01T03:33:19;5.57;;;2.50;;
21301;SDS011;10810;48.270;9.996;2023-02-01T03:36:42;6.27;;;2.53;;
21301;SDS011;10810;48.270;9.996;2023-02-01T03:39:22;5.50;;;2.40;;
21301;SDS011;10810;48.270;9.996;2023-02-01T03:42:54;7.43;;;2.60;;
21301;SDS011;10810;48.270;9.996;2023-02-01T03:45:59;7.37;;;2.63;;
21301;SDS011;10810;48.270;9.996;2023-02-01T03:49:20;6.67;;;2.37;;
21301;SDS011;10810;48.270;9.996;2023-02-01T03:51:57;5.47;;;2.43;;
21301;SDS011;10810;48.270;9.996;2023-02-01T03:58:36;7.30;;;2.60;;
21301;SDS011;10810;48.270;9.996;2023-02-01T04:05:00;6.47;;;2.70;;
21301;SDS011;10810;48.270;9.996;2023-02-01T04:07:49;4.33;;;2.13;;
21301;SDS011;10810;48.270;9.996;2023-02-01T04:14:11;5.27;;;2.30;;
21301;SDS011;10810;48.270;9.996;2023-02-01T04:16:46;7.07;;;2.43;;
21301;SDS011;10810;48.270;9.996;2023-02-01T04:20:18;6.87;;;2.27;;
21301;SDS011;10810;48.270;9.996;2023-02-01T04:23:34;5.37;;;1.93;;
21301;SDS011;10810;48.270;9.996;2023-02-01T04:26:19;6.03;;;2.30;;
21301;SDS011;10810;48.270;9.996;2023-02-01T04:42:03;6.10;;;2.43;;
21301;SDS011;10810;48.270;9.996;2023-02-01T04:44:47;4.63;;;1.93;;
21301;SDS011;10810;48.270;9.996;2023-02-01T04:47:38;5.90;;;2.40;;
21301;SDS011;10810;48.270;9.996;2023-02-01T04:50:35;4.67;;;2.20;;
21301;SDS011;10810;48.270;9.996;2023-02-01T04:56:22;8.50;;;2.60;;
21301;SDS011;10810;48.270;9.996;2023-02-01T04:59:15;5.57;;;2.40;;
21301;SDS011;10810;48.270;9.996;2023-02-01T05:03:21;9.90;;;2.50;;
21301;SDS011;10810;48.270;9.996;2023-02-01T05:05:09;7.37;;;2.80;;
21301;SDS011;10810;48.270;9.996;2023-02-01T05:11:11;4.97;;;2.33;;
21301;SDS011;10810;48.270;9.996;2023-02-01T05:13:56;8.30;;;2.70;;
21301;SDS011;10810;48.270;9.996;2023-02-01T05:17:30;5.07;;;2.57;;
21301;SDS011;10810;48.270;9.996;2023-02-01T05:26:47;6.17;;;2.80;;
21301;SDS011;10810;48.270;9.996;2023-02-01T05:32:56;5.50;;;2.13;;
21301;SDS011;10810;48.270;9.996;2023-02-01T05:35:26;6.17;;;2.60;;
21301;SDS011;10810;48.270;9.996;2023-02-01T05:38:17;7.90;;;2.97;;
21301;SDS011;10810;48.270;9.996;2023-02-01T05:41:16;5.33;;;2.30;;
21301;SDS011;10810;48.270;9.996;2023-02-01T05:43:50;7.53;;;3.30;;
21301;SDS011;10810;48.270;9.996;2023-02-01T05:46:31;7.73;;;3.53;;
21301;SDS011;10810;48.270;9.996;2023-02-01T05:52:53;6.53;;;2.83;;
21301;SDS011;10810;48.270;9.996;2023-02-01T05:55:20;7.37;;;3.00;;
21301;SDS011;10810;48.270;9.996;2023-02-01T05:57:56;7.30;;;3.20;;
21301;SDS011;10810;48.270;9.996;2023-02-01T06:00:53;6.80;;;3.07;;
21301;SDS011;10810;48.270;9.996;2023-02-01T06:07:07;7.97;;;2.70;;
21301;SDS011;10810;48.270;9.996;2023-02-01T06:12:54;7.70;;;2.87;;
21301;SDS011;10810;48.270;9.996;2023-02-01T06:15:46;6.53;;;2.33;;
21301;SDS011;10810;48.270;9.996;2023-02-01T06:19:00;6.17;;;2.40;;
21301;SDS011;10810;48.270;9.996;2023-02-01T06:24:53;6.87;;;2.37;;
21301;SDS011;10810;48.270;9.996;2023-02-01T06:27:25;5.40;;;2.17;;
21301;SDS011;10810;48.270;9.996;2023-02-01T06:29:53;6.70;;;3.00;;
21301;SDS011;10810;48.270;9.996;2023-02-01T06:32:33;8.33;;;2.97;;
21301;SDS011;10810;48.270;9.996;2023-02-01T06:35:48;8.17;;;3.00;;
21301;SDS011;10810;48.270;9.996;2023-02-01T06:42:01;7.33;;;2.97;;
21301;SDS011;10810;48.270;9.996;2023-02-01T06:44:34;5.67;;;2.30;;
21301;SDS011;10810;48.270;9.996;2023-02-01T06:47:31;9.17;;;2.80;;
21301;SDS011;10810;48.270;9.996;2023-02-01T06:50:35;5.40;;;2.20;;
21301;SDS011;10810;48.270;9.996;2023-02-01T06:57:12;4.47;;;2.30;;
21301;SDS011;10810;48.270;9.996;2023-02-01T06:59:57;5.57;;;2.07;;
21301;SDS011;10810;48.270;9.996;2023-02-01T07:02:36;7.30;;;2.50;;
21301;SDS011;10810;48.270;9.996;2023-02-01T07:05:57;6.93;;;2.37;;
21301;SDS011;10810;48.270;9.996;2023-02-01T07:09:15;5.60;;;2.60;;
21301;SDS011;10810;48.270;9.996;2023-02-01T07:12:11;4.77;;;2.57;;
21301;SDS011;10810;48.270;9.996;2023-02-01T07:14:55;5.50;;;2.20;;
21301;SDS011;10810;48.270;9.996;2023-02-01T07:17:55;6.30;;;2.27;;
21301;SDS011;10810;48.270;9.996;2023-02-01T07:20:35;5.20;;;2.10;;
21301;SDS011;10810;48.270;9.996;2023-02-01T07:23:19;4.77;;;2.27;;
21301;SDS011;10810;48.270;9.996;2023-02-01T07:25:54;5.63;;;2.87;;
21301;SDS011;10810;48.270;9.996;2023-02-01T07:37:52;6.80;;;2.50;;
21301;SDS011;10810;48.270;9.996;2023-02-01T07:40:56;6.10;;;2.50;;
21301;SDS011;10810;48.270;9.996;2023-02-01T07:43:37;6.90;;;2.40;;
21301;SDS011;10810;48.270;9.996;2023-02-01T07:46:47;5.13;;;2.20;;
21301;SDS011;10810;48.270;9.996;2023-02-01T07:49:30;8.83;;;2.60;;
21301;SDS011;10810;48.270;9.996;2023-02-01T07:55:10;5.90;;;2.20;;
21301;SDS011;10810;48.270;9.996;2023-02-01T07:58:03;5.93;;;2.67;;
21301;SDS011;10810;48.270;9.996;2023-02-01T08:00:42;7.30;;;2.70;;
21301;SDS011;10810;48.270;9.996;2023-02-01T08:03:41;6.27;;;2.47;;
21301;SDS011;10810;48.270;9.996;2023-02-01T08:15:59;8.77;;;2.70;;
21301;SDS011;10810;48.270;9.996;2023-02-01T08:18:53;5.23;;;2.27;;
21301;SDS011;10810;48.270;9.996;2023-02-01T08:21:34;7.33;;;3.00;;
21301;SDS011;10810;48.270;9.996;2023-02-01T08:24:30;7.17;;;2.70;;
21301;SDS011;10810;48.270;9.996;2023-02-01T08:27:50;6.80;;;2.60;;
21301;SDS011;10810;48.270;9.996;2023-02-01T08:30:40;6.67;;;2.50;;
21301;SDS011;10810;48.270;9.996;2023-02-01T08:33:16;6.50;;;2.83;;
21301;SDS011;10810;48.270;9.996;2023-02-01T08:36:23;5.60;;;2.30;;
21301;SDS011;10810;48.270;9.996;2023-02-01T08:39:25;7.40;;;2.50;;
21301;SDS011;10810;48.270;9.996;2023-02-01T08:42:27;9.93;;;2.80;;
21301;SDS011;10810;48.270;9.996;2023-02-01T08:45:11;6.30;;;2.60;;
21301;SDS011;10810;48.270;9.996;2023-02-01T08:51:26;7.20;;;2.80;;
21301;SDS011;10810;48.270;9.996;2023-02-01T08:54:37;6.50;;;2.40;;
21301;SDS011;10810;48.270;9.996;2023-02-01T08:57:26;5.80;;;2.37;;
21301;SDS011;10810;48.270;9.996;2023-02-01T09:03:14;6.47;;;2.40;;
21301;SDS011;10810;48.270;9.996;2023-02-01T09:06:21;5.67;;;2.73;;
21301;SDS011;10810;48.270;9.996;2023-02-01T09:15:12;5.60;;;2.67;;
21301;SDS011;10810;48.270;9.996;2023-02-01T09:19:51;6.20;;;2.83;;
21301;SDS011;10810;48.270;9.996;2023-02-01T09:21:11;7.23;;;3.20;;
21301;SDS011;10810;48.270;9.996;2023-02-01T09:26:41;15.37;;;4.80;;
21301;SDS011;10810;48.270;9.996;2023-02-01T09:39:29;5.17;;;2.47;;
21301;SDS011;10810;48.270;9.996;2023-02-01T09:42:15;7.83;;;2.47;;
21301;SDS011;10810;48.270;9.996;2023-02-01T09:54:36;5.77;;;2.30;;
21301;SDS011;10810;48.270;9.996;2023-02-01T09:57:33;5.23;;;2.63;;
21301;SDS011;10810;48.270;9.996;2023-02-01T10:00:50;5.90;;;2.70;;
21301;SDS011;10810;48.270;9.996;2023-02-01T10:04:25;6.30;;;2.57;;
21301;SDS011;10810;48.270;9.996;2023-02-01T10:07:24;6.70;;;2.60;;
21301;SDS011;10810;48.270;9.996;2023-02-01T10:10:02;7.60;;;2.83;;
21301;SDS011;10810;48.270;9.996;2023-02-01T10:16:20;5.13;;;2.37;;
21301;SDS011;10810;48.270;9.996;2023-02-01T10:19:24;7.30;;;2.57;;
21301;SDS011;10810;48.270;9.996;2023-02-01T10:22:35;5.77;;;2.83;;
21301;SDS011;10810;48.270;9.996;2023-02-01T10:38:04;9.80;;;2.93;;
21301;SDS011;10810;48.270;9.996;2023-02-01T10:41:11;6.77;;;2.70;;
21301;SDS011;10810;48.270;9.996;2023-02-01T10:45:29;6.00;;;2.70;;
21301;SDS011;10810;48.270;9.996;2023-02-01T10:46:52;5.93;;;2.57;;
21301;SDS011;10810;48.270;9.996;2023-02-01T10:49:21;6.77;;;2.83;;
21301;SDS011;10810;48.270;9.996;2023-02-01T10:51:57;6.03;;;3.00;;
21301;SDS011;10810;48.270;9.996;2023-02-01T10:54:50;8.40;;;3.13;;
21301;SDS011;10810;48.270;9.996;2023-02-01T10:57:53;5.97;;;2.63;;
21301;SDS011;10810;48.270;9.996;2023-02-01T11:01:04;3.83;;;2.30;;
21301;SDS011;10810;48.270;9.996;2023-02-01T11:03:36;7.30;;;2.80;;
21301;SDS011;10810;48.270;9.996;2023-02-01T11:09:43;7.90;;;2.63;;
21301;SDS011;10810;48.270;9.996;2023-02-01T11:12:24;6.63;;;2.67;;
21301;SDS011;10810;48.270;9.996;2023-02-01T11:15:20;7.43;;;2.77;;
21301;SDS011;10810;48.270;9.996;2023-02-01T11:17:53;6.13;;;2.50;;
21301;SDS011;10810;48.270;9.996;2023-02-01T11:23:43;10.37;;;3.47;;
21301;SDS011;10810;48.270;9.996;2023-02-01T11:29:50;8.23;;;2.80;;
21301;SDS011;10810;48.270;9.996;2023-02-01T11:32:41;9.53;;;3.20;;
21301;SDS011;10810;48.270;9.996;2023-02-01T11:36:10;11.27;;;4.03;;
21301;SDS011;10810;48.270;9.996;2023-02-01T11:39:24;5.97;;;2.80;;
21301;SDS011;10810;48.270;9.996;2023-02-01T11:42:21;5.37;;;2.70;;
21301;SDS011;10810;48.270;9.996;2023-02-01T11:48:25;7.73;;;3.07;;
21301;SDS011;10810;48.270;9.996;2023-02-01T11:51:01;5.37;;;2.90;;
21301;SDS011;10810;48.270;9.996;2023-02-01T11:58:02;6.47;;;2.90;;
21301;SDS011;10810;48.270;9.996;2023-02-01T12:03:33;7.27;;;2.90;;
21301;SDS011;10810;48.270;9.996;2023-02-01T12:06:28;10.53;;;3.27;;
21301;SDS011;10810;48.270;9.996;2023-02-01T12:12:09;9.53;;;3.53;;
21301;SDS011;10810;48.270;9.996;2023-02-01T12:20:59;13.03;;;4.13;;
21301;SDS011;10810;48.270;9.996;2023-02-01T12:23:43;16.00;;;5.13;;
21301;SDS011;10810;48.270;9.996;2023-02-01T12:26:31;5.43;;;2.77;;
21301;SDS011;10810;48.270;9.996;2023-02-01T12:29:47;7.47;;;3.10;;
21301;SDS011;10810;48.270;9.996;2023-02-01T12:32:31;9.17;;;3.60;;
21301;SDS011;10810;48.270;9.996;2023-02-01T12:35:17;10.37;;;3.57;;
21301;SDS011;10810;48.270;9.996;2023-02-01T12:38:15;6.17;;;3.10;;
21301;SDS011;10810;48.270;9.996;2023-02-01T12:41:09;9.37;;;3.90;;
21301;SDS011;10810;48.270;9.996;2023-02-01T12:47:05;9.07;;;3.53;;
21301;SDS011;10810;48.270;9.996;2023-02-01T12:49:57;9.80;;;3.70;;
21301;SDS011;10810;48.270;9.996;2023-02-01T12:52:37;8.03;;;3.60;;
21301;SDS011;10810;48.270;9.996;2023-02-01T12:58:56;11.87;;;3.47;;
21301;SDS011;10810;48.270;9.996;2023-02-01T13:02:04;10.43;;;3.37;;
21301;SDS011;10810;48.270;9.996;2023-02-01T13:05:12;11.00;;;3.77;;
21301;SDS011;10810;48.270;9.996;2023-02-01T13:11:38;7.47;;;2.83;;
21301;SDS011;10810;48.270;9.996;2023-02-01T13:14:32;7.70;;;3.57;;
21301;SDS011;10810;48.270;9.996;2023-02-01T13:17:42;7.27;;;2.67;;
21301;SDS011;10810;48.270;9.996;2023-02-01T13:26:54;6.10;;;3.20;;
21301;SDS011;10810;48.270;9.996;2023-02-01T13:29:54;11.53;;;3.23;;
21301;SDS011;10810;48.270;9.996;2023-02-01T13:45:44;5.43;;;2.10;;
21301;SDS011;10810;48.270;9.996;2023-02-01T13:48:33;7.20;;;2.43;;
21301;SDS011;10810;48.270;9.996;2023-02-01T13:51:15;4.73;;;2.20;;
21301;SDS011;10810;48.270;9.996;2023-02-01T13:54:29;12.70;;;5.07;;
21301;SDS011;10810;48.270;9.996;2023-02-01T13:57:30;7.00;;;2.97;;
21301;SDS011;10810;48.270;9.996;2023-02-01T14:16:36;6.23;;;2.10;;
21301;SDS011;10810;48.270;9.996;2023-02-01T14:25:44;7.63;;;1.80;;
21301;SDS011;10810;48.270;9.996;2023-02-01T14:28:42;5.23;;;1.77;;
21301;SDS011;10810;48.270;9.996;2023-02-01T14:52:11;6.60;;;1.87;;
21301;SDS011;10810;48.270;9.996;2023-02-01T14:59:06;1.60;;;1.20;;
21301;SDS011;10810;48.270;9.996;2023-02-01T15:02:15;3.40;;;1.50;;
21301;SDS011;10810;48.270;9.996;2023-02-01T15:08:37;2.60;;;1.20;;
21301;SDS011;10810;48.270;9.996;2023-02-01T15:18:52;2.73;;;1.10;;
21301;SDS011;10810;48.270;9.996;2023-02-01T15:22:01;4.37;;;1.33;;
21301;SDS011;10810;48.270;9.996;2023-02-01T15:38:35;2.93;;;1.30;;
21301;SDS011;10810;48.270;9.996;2023-02-01T15:41:28;3.80;;;1.27;;
21301;SDS011;10810;48.270;9.996;2023-02-01T15:47:15;2.43;;;1.40;;
21301;SDS011;10810;48.270;9.996;2023-02-01T15:50:13;2.87;;;1.40;;
21301;SDS011;10810;48.270;9.996;2023-02-01T15:52:50;2.10;;;1.40;;
21301;SDS011;10810;48.270;9.996;2023-02-01T15:59:03;4.53;;;1.63;;
21301;SDS011;10810;48.270;9.996;2023-02-01T16:03:37;3.03;;;1.60;;
21301;SDS011;10810;48.270;9.996;2023-02-01T16:18:07;3.57;;;1.60;;
21301;SDS011;10810;48.270;9.996;2023-02-01T16:21:18;3.40;;;1.40;;
21301;SDS011;10810;48.270;9.996;2023-02-01T16:23:51;4.77;;;1.50;;
21301;SDS011;10810;48.270;9.996;2023-02-01T16:27:55;4.33;;;1.77;;
21301;SDS011;10810;48.270;9.996;2023-02-01T16:30:05;2.80;;;1.37;;
21301;SDS011;10810;48.270;9.996;2023-02-01T16:33:16;6.60;;;1.77;;
21301;SDS011;10810;48.270;9.996;2023-02-01T16:35:50;5.17;;;1.70;;
21301;SDS011;10810;48.270;9.996;2023-02-01T16:39:12;4.67;;;1.40;;
21301;SDS011;10810;48.270;9.996;2023-02-01T16:42:00;3.53;;;1.47;;
21301;SDS011;10810;48.270;9.996;2023-02-01T16:44:53;3.57;;;1.40;;
21301;SDS011;10810;48.270;9.996;2023-02-01T16:47:25;2.87;;;1.53;;
21301;SDS011;10810;48.270;9.996;2023-02-01T16:50:25;2.13;;;1.30;;
21301;SDS011;10810;48.270;9.996;2023-02-01T16:53:15;4.67;;;1.50;;
21301;SDS011;10810;48.270;9.996;2023-02-01T16:56:28;7.43;;;1.90;;
21301;SDS011;10810;48.270;9.996;2023-02-01T16:59:07;12.50;;;3.60;;
21301;SDS011;10810;48.270;9.996;2023-02-01T17:01:36;15.30;;;4.00;;
21301;SDS011;10810;48.270;9.996;2023-02-01T17:04:04;8.70;;;2.90;;
21301;SDS011;10810;48.270;9.996;2023-02-01T17:06:32;4.53;;;2.10;;
21301;SDS011;10810;48.270;9.996;2023-02-01T17:09:17;5.70;;;1.80;;
21301;SDS011;10810;48.270;9.996;2023-02-01T17:14:45;6.80;;;1.60;;
21301;SDS011;10810;48.270;9.996;2023-02-01T17:17:47;5.60;;;1.50;;
21301;SDS011;10810;48.270;9.996;2023-02-01T17:20:32;2.20;;;1.23;;
21301;SDS011;10810;48.270;9.996;2023-02-01T17:23:20;9.00;;;2.60;;
21301;SDS011;10810;48.270;9.996;2023-02-01T17:26:00;7.73;;;2.50;;
21301;SDS011;10810;48.270;9.996;2023-02-01T17:28:38;6.47;;;1.80;;
21301;SDS011;10810;48.270;9.996;2023-02-01T17:32:59;2.87;;;1.60;;
21301;SDS011;10810;48.270;9.996;2023-02-01T17:34:57;5.73;;;1.50;;
21301;SDS011;10810;48.270;9.996;2023-02-01T17:47:13;7.43;;;1.70;;
21301;SDS011;10810;48.270;9.996;2023-02-01T17:49:43;4.90;;;1.43;;
21301;SDS011;10810;48.270;9.996;2023-02-01T17:55:53;4.90;;;1.77;;
21301;SDS011;10810;48.270;9.996;2023-02-01T17:59:33;3.13;;;1.27;;
21301;SDS011;10810;48.270;9.996;2023-02-01T18:02:33;6.70;;;1.70;;
21301;SDS011;10810;48.270;9.996;2023-02-01T18:09:19;4.97;;;1.50;;
21301;SDS011;10810;48.270;9.996;2023-02-01T18:12:04;6.10;;;1.50;;
21301;SDS011;10810;48.270;9.996;2023-02-01T18:47:39;3.23;;;1.50;;
21301;SDS011;10810;48.270;9.996;2023-02-01T18:50:18;7.17;;;1.67;;
21301;SDS011;10810;48.270;9.996;2023-02-01T18:57:25;4.77;;;1.63;;
21301;SDS011;10810;48.270;9.996;2023-02-01T19:12:27;2.03;;;1.20;;
21301;SDS011;10810;48.270;9.996;2023-02-01T19:38:25;5.30;;;1.60;;
21301;SDS011;10810;48.270;9.996;2023-02-01T19:41:22;3.97;;;1.97;;
21301;SDS011;10810;48.270;9.996;2023-02-01T19:44:04;6.90;;;2.07;;
21301;SDS011;10810;48.270;9.996;2023-02-01T19:48:08;3.20;;;1.80;;
21301;SDS011;10810;48.270;9.996;2023-02-01T19:50:20;3.60;;;1.70;;
21301;SDS011;10810;48.270;9.996;2023-02-01T19:53:20;8.27;;;3.13;;
21301;SDS011;10810;48.270;9.996;2023-02-01T19:56:35;16.50;;;5.20;;
21301;SDS011;10810;48.270;9.996;2023-02-01T19:59:08;13.63;;;4.93;;
21301;SDS011;10810;48.270;9.996;2023-02-01T20:01:44;11.00;;;4.33;;
21301;SDS011;10810;48.270;9.996;2023-02-01T20:04:52;10.70;;;2.87;;
21301;SDS011;10810;48.270;9.996;2023-02-01T20:08:08;5.87;;;2.00;;
21301;SDS011;10810;48.270;9.996;2023-02-01T20:21:08;5.93;;;1.90;;
21301;SDS011;10810;48.270;9.996;2023-02-01T20:24:09;6.87;;;2.43;;
21301;SDS011;10810;48.270;9.996;2023-02-01T20:27:19;6.13;;;1.97;;
21301;SDS011;10810;48.270;9.996;2023-02-01T21:06:13;7.73;;;1.50;;
21301;SDS011;10810;48.270;9.996;2023-02-01T21:12:42;8.53;;;1.87;;
21301;SDS011;10810;48.270;9.996;2023-02-01T21:15:31;5.73;;;2.80;;
21301;SDS011;10810;48.270;9.996;2023-02-01T21:21:26;4.13;;;1.80;;
21301;SDS011;10810;48.270;9.996;2023-02-01T21:24:00;6.27;;;1.90;;
21301;SDS011;10810;48.270;9.996;2023-02-01T21:27:09;10.20;;;2.07;;
21301;SDS011;10810;48.270;9.996;2023-02-01T21:36:51;6.50;;;1.60;;
21301;SDS011;10810;48.270;9.996;2023-02-01T21:41:23;13.80;;;1.80;;
21301;SDS011;10810;48.270;9.996;2023-02-01T21:46:08;11.70;;;1.90;;
21301;SDS011;10810;48.270;9.996;2023-02-01T21:48:50;2.50;;;1.40;;
21301;SDS011;10810;48.270;9.996;2023-02-01T21:51:20;3.10;;;1.83;;
21301;SDS011;10810;48.270;9.996;2023-02-01T22:00:29;7.07;;;2.17;;
21301;SDS011;10810;48.270;9.996;2023-02-01T22:03:14;8.63;;;1.97;;
21301;SDS011;10810;48.270;9.996;2023-02-01T22:08:02;4.77;;;1.50;;
21301;SDS011;10810;48.270;9.996;2023-02-01T22:09:26;2.93;;;1.33;;
21301;SDS011;10810;48.270;9.996;2023-02-01T22:12:10;6.67;;;1.40;;
21301;SDS011;10810;48.270;9.996;2023-02-01T22:15:17;8.53;;;2.43;;
21301;SDS011;10810;48.270;9.996;2023-02-01T22:18:17;16.27;;;3.67;;
21301;SDS011;10810;48.270;9.996;2023-02-01T22:21:14;4.20;;;1.60;;
21301;SDS011;10810;48.270;9.996;2023-02-01T22:27:50;2.77;;;1.40;;
21301;SDS011;10810;48.270;9.996;2023-02-01T22:29:59;4.53;;;1.40;;
21301;SDS011;10810;48.270;9.996;2023-02-01T22:32:54;5.67;;;1.93;;
21301;SDS011;10810;48.270;9.996;2023-02-01T22:35:49;4.97;;;1.80;;
21301;SDS011;10810;48.270;9.996;2023-02-01T22:38:27;3.43;;;1.77;;
21301;SDS011;10810;48.270;9.996;2023-02-01T22:41:25;4.50;;;1.80;;
21301;SDS011;10810;48.270;9.996;2023-02-01T22:44:03;5.10;;;1.70;;
21301;SDS011;10810;48.270;9.996;2023-02-01T22:46:37;4.93;;;1.80;;
21301;SDS011;10810;48.270;9.996;2023-02-01T22:50:42;6.03;;;1.80;;
21301;SDS011;10810;48.270;9.996;2023-02-01T22:52:20;10.40;;;1.90;;
21301;SDS011;10810;48.270;9.996;2023-02-01T22:54:58;5.53;;;2.00;;
21301;SDS011;10810;48.270;9.996;2023-02-01T22:57:57;8.50;;;1.73;;
21301;SDS011;10810;48.270;9.996;2023-02-01T23:06:39;4.97;;;1.83;;
21301;SDS011;10810;48.270;9.996;2023-02-01T23:09:48;8.23;;;1.70;;
21301;SDS011;10810;48.270;9.996;2023-02-01T23:12:59;3.57;;;1.20;;
21301;SDS011;10810;48.270;9.996;2023-02-01T23:17:13;2.40;;;1.17;;
21301;SDS011;10810;48.270;9.996;2023-02-01T23:22:05;3.00;;;1.40;;
21301;SDS011;10810;48.270;9.996;2023-02-01T23:27:51;3.70;;;2.10;;
21301;SDS011;10810;48.270;9.996;2023-02-01T23:30:47;7.77;;;1.47;;
21301;SDS011;10810;48.270;9.996;2023-02-01T23:33:48;5.50;;;1.20;;
21301;SDS011;10810;48.270;9.996;2023-02-01T23:36:21;3.37;;;1.93;;
21301;SDS011;10810;48.270;9.996;2023-02-01T23:38:51;7.50;;;1.80;;
21301;SDS011;10810;48.270;9.996;2023-02-01T23:41:54;9.57;;;1.40;;
21301;SDS011;10810;48.270;9.996;2023-02-01T23:46:09;3.87;;;1.40;;
21301;SDS011;10810;48.270;9.996;2023-02-01T23:47:57;5.70;;;1.27;;
21301;SDS011;10810;48.270;9.996;2023-02-01T23:50:58;6.43;;;1.00;;
21301;SDS011;10810;48.270;9.996;2023-02-01T23:53:53;2.93;;;1.33;;
21301;SDS011;10810;48.270;9.996;2023-02-01T23:56:30;2.90;;;1.00;;
21301;SDS011;10810;48.270;9.996;2023-02-01T23:59:24;2.00;;;1.10;;
